createdAt,value
2022-09-16T00:02:02.427Z,100248.84
2022-09-16T00:04:28.977Z,100253.31
2022-09-16T00:06:55.440Z,100244.56
2022-09-16T00:09:21.887Z,100263.69
2022-09-16T00:11:48.345Z,100260.44
2022-09-16T00:14:14.894Z,100261.38
2022-09-16T00:16:41.891Z,100263.63
2022-09-16T00:19:09.325Z,100261.66
2022-09-16T00:21:36.651Z,100260.34
2022-09-16T00:24:03.634Z,100267.25
2022-09-16T00:26:30.257Z,100250.19
2022-09-16T00:28:56.939Z,100262.09
2022-09-16T00:31:23.387Z,100261.81
2022-09-16T00:33:49.863Z,100259.44
2022-09-16T00:36:19.982Z,100257.53
2022-09-16T00:38:51.541Z,100257.34
2022-09-16T00:41:20.804Z,100257.81
2022-09-16T00:43:55.066Z,100255.75
2022-09-16T00:46:34.333Z,100267.13
2022-09-16T00:49:06.654Z,100266.66
2022-09-16T00:51:33.904Z,100261.22
2022-09-16T00:54:04.705Z,100263.69
2022-09-16T00:56:37.292Z,100264.53
2022-09-16T00:59:29.992Z,100259.88
2022-09-16T01:02:00.302Z,100252.81
2022-09-16T01:04:32.761Z,100260.59
2022-09-16T01:06:59.879Z,100259.31
2022-09-16T01:09:27.730Z,100265.22
2022-09-16T01:11:54.225Z,100258.47
2022-09-16T01:14:41.931Z,100258.69
2022-09-16T01:17:31.199Z,100262.63
2022-09-16T01:20:34.613Z,100256.63
2022-09-16T01:23:25.725Z,100257.41
2022-09-16T01:26:10.412Z,100253.16
2022-09-16T01:29:14.393Z,100254.25
2022-09-16T01:31:59.283Z,100265.16
2022-09-16T01:34:32.079Z,100258.69
2022-09-16T01:37:26.790Z,100259.97
2022-09-16T01:40:05.782Z,100262.44
2022-09-16T01:42:47.546Z,100261.38
2022-09-16T01:45:37.922Z,100259.28
2022-09-16T01:48:43.733Z,100259.59
2022-09-16T01:51:17.457Z,100255.25
2022-09-16T01:54:03.592Z,100249.53
2022-09-16T01:56:32.833Z,100262.00
2022-09-16T01:59:08.081Z,100255.34
2022-09-16T02:01:42.124Z,100263.25
2022-09-16T02:04:17.227Z,100260.31
2022-09-16T02:06:46.398Z,100259.97
2022-09-16T02:09:33.321Z,100249.84
2022-09-16T02:12:06.015Z,100255.81
2022-09-16T02:14:39.261Z,100253.03
2022-09-16T02:17:10.592Z,100250.59
2022-09-16T02:19:44.566Z,100253.91
2022-09-16T02:22:15.017Z,100238.97
2022-09-16T02:24:48.301Z,100254.53
2022-09-16T02:27:21.613Z,100249.66
2022-09-16T02:29:54.779Z,100243.06
2022-09-16T02:32:27.545Z,100244.41
2022-09-16T02:34:55.744Z,100242.03
2022-09-16T02:37:30.889Z,100237.47
2022-09-16T02:40:02.288Z,100246.66
2022-09-16T02:42:30.137Z,100238.78
2022-09-16T02:44:58.130Z,100236.06
2022-09-16T02:47:58.528Z,100237.41
2022-09-16T02:50:46.915Z,100244.81
2022-09-16T02:53:40.515Z,100249.25
2022-09-16T02:56:18.011Z,100252.78
2022-09-16T02:58:44.590Z,100250.34
2022-09-16T03:01:13.548Z,100257.69
2022-09-16T03:03:40.793Z,100255.78
2022-09-16T03:06:15.447Z,100246.53
2022-09-16T03:08:42.370Z,100256.25
2022-09-16T03:11:32.203Z,100261.41
2022-09-16T03:14:17.432Z,100253.38
2022-09-16T03:17:03.578Z,100260.00
2022-09-16T03:20:23.705Z,100249.13
2022-09-16T03:23:14.000Z,100252.88
2022-09-16T03:25:49.589Z,100257.00
2022-09-16T03:29:12.515Z,100258.59
2022-09-16T03:31:55.330Z,100253.72
2022-09-16T03:34:36.158Z,100253.19
2022-09-16T03:37:08.124Z,100247.09
2022-09-16T03:39:35.992Z,100250.59
2022-09-16T03:42:04.794Z,100249.94
2022-09-16T03:44:33.454Z,100249.47
2022-09-16T03:47:00.097Z,100239.94
2022-09-16T03:49:26.552Z,100252.09
2022-09-16T03:51:53.823Z,100245.34
2022-09-16T03:54:20.278Z,100244.66
2022-09-16T03:56:46.867Z,100240.88
2022-09-16T03:59:13.421Z,100241.75
2022-09-16T04:01:40.051Z,100225.72
2022-09-16T04:04:08.049Z,100227.63
2022-09-16T04:06:34.509Z,100240.69
2022-09-16T04:09:07.185Z,100237.81
2022-09-16T04:11:35.440Z,100226.41
2022-09-16T04:14:04.247Z,100230.41
2022-09-16T04:16:31.116Z,100231.50
2022-09-16T04:18:57.644Z,100236.72
2022-09-16T04:21:24.595Z,100231.84
2022-09-16T04:23:59.998Z,100232.94
2022-09-16T04:26:28.034Z,100235.97
2022-09-16T04:28:54.935Z,100228.41
2022-09-16T04:31:21.538Z,100223.47
2022-09-16T04:33:48.120Z,100233.50
2022-09-16T04:36:19.463Z,100232.66
2022-09-16T04:38:47.605Z,100225.38
2022-09-16T04:41:23.230Z,100225.63
2022-09-16T04:43:57.447Z,100229.00
2022-09-16T04:46:26.068Z,100227.50
2022-09-16T04:48:53.902Z,100227.50
2022-09-16T04:51:22.476Z,100220.56
2022-09-16T04:53:49.631Z,100238.81
2022-09-16T04:56:22.016Z,100228.50
2022-09-16T04:58:50.773Z,100234.28
2022-09-16T05:01:20.041Z,100235.56
2022-09-16T05:03:49.154Z,100235.78
2022-09-16T05:06:23.676Z,100231.22
2022-09-16T05:08:52.005Z,100227.16
2022-09-16T05:11:27.583Z,100220.78
2022-09-16T05:13:55.668Z,100229.25
2022-09-16T05:16:23.239Z,100224.78
2022-09-16T05:18:51.964Z,100220.72
2022-09-16T05:21:20.759Z,100228.94
2022-09-16T05:23:48.261Z,100225.66
2022-09-16T05:26:17.977Z,100233.00
2022-09-16T05:28:44.641Z,100231.72
2022-09-16T05:31:16.665Z,100227.34
2022-09-16T05:33:46.052Z,100229.78
2022-09-16T05:36:15.253Z,100233.94
2022-09-16T05:38:54.372Z,100234.97
2022-09-16T05:41:29.231Z,100242.50
2022-09-16T05:43:59.570Z,100221.72
2022-09-16T05:46:26.566Z,100224.38
2022-09-16T05:48:54.070Z,100220.31
2022-09-16T05:51:22.276Z,100217.34
2022-09-16T05:53:50.223Z,100215.19
2022-09-16T05:56:24.492Z,100216.94
2022-09-16T05:58:55.148Z,100215.03
2022-09-16T06:01:24.402Z,100225.63
2022-09-16T06:03:52.553Z,100228.09
2022-09-16T06:06:27.214Z,100223.28
2022-09-16T06:08:59.577Z,100230.25
2022-09-16T06:11:27.785Z,100223.94
2022-09-16T06:13:56.824Z,100226.38
2022-09-16T06:16:28.031Z,100219.84
2022-09-16T06:18:55.684Z,100232.75
2022-09-16T06:21:23.084Z,100221.88
2022-09-16T06:23:49.960Z,100223.56
2022-09-16T06:26:19.358Z,100223.91
2022-09-16T06:28:47.119Z,100231.16
2022-09-16T06:31:24.747Z,100226.28
2022-09-16T06:33:52.747Z,100227.97
2022-09-16T06:36:21.797Z,100226.28
2022-09-16T06:38:49.334Z,100236.34
2022-09-16T06:41:17.473Z,100224.53
2022-09-16T06:43:44.547Z,100222.03
2022-09-16T06:46:17.198Z,100215.34
2022-09-16T06:48:50.943Z,100219.84
2022-09-16T06:51:24.186Z,100217.84
2022-09-16T06:53:52.501Z,100213.38
2022-09-16T06:56:21.267Z,100214.69
2022-09-16T06:58:52.799Z,100222.56
2022-09-16T07:01:21.378Z,100216.03
2022-09-16T07:03:51.102Z,100219.09
2022-09-16T07:06:20.136Z,100213.16
2022-09-16T07:08:47.106Z,100217.47
2022-09-16T07:11:16.183Z,100218.72
2022-09-16T07:13:43.731Z,100225.56
2022-09-16T07:16:13.958Z,100220.56
2022-09-16T07:18:42.089Z,100228.66
2022-09-16T07:21:17.672Z,100226.00
2022-09-16T07:23:45.237Z,100231.53
2022-09-16T07:26:16.195Z,100228.56
2022-09-16T07:28:44.282Z,100228.88
2022-09-16T07:31:13.409Z,100227.78
2022-09-16T07:33:42.381Z,100221.94
2022-09-16T07:36:10.411Z,100226.88
2022-09-16T07:38:37.727Z,100227.72
2022-09-16T07:41:12.826Z,100229.66
2022-09-16T07:43:40.578Z,100235.38
2022-09-16T07:46:08.799Z,100242.38
2022-09-16T07:48:35.822Z,100245.41
2022-09-16T07:51:07.065Z,100244.19
2022-09-16T07:53:34.827Z,100247.22
2022-09-16T07:56:07.499Z,100246.63
2022-09-16T07:58:34.257Z,100249.94
2022-09-16T08:01:04.761Z,100244.50
2022-09-16T08:03:33.109Z,100252.75
2022-09-16T08:06:06.589Z,100246.78
2022-09-16T08:08:34.525Z,100241.66
2022-09-16T08:11:02.131Z,100252.19
2022-09-16T08:13:30.559Z,100247.63
2022-09-16T08:16:02.298Z,100244.88
2022-09-16T08:18:29.757Z,100239.84
2022-09-16T08:20:56.669Z,100244.06
2022-09-16T08:23:23.214Z,100245.28
2022-09-16T08:25:58.347Z,100244.16
2022-09-16T08:28:25.981Z,100242.16
2022-09-16T08:30:53.981Z,100239.59
2022-09-16T08:33:23.212Z,100240.09
2022-09-16T08:36:17.132Z,100248.66
2022-09-16T08:38:44.836Z,100246.28
2022-09-16T08:41:39.565Z,100242.81
2022-09-16T08:44:32.485Z,100241.75
2022-09-16T08:47:06.224Z,100242.53
2022-09-16T08:49:44.147Z,100231.56
2022-09-16T08:52:43.465Z,100237.47
2022-09-16T08:55:20.570Z,100233.03
2022-09-16T08:58:26.290Z,100234.41
2022-09-16T09:01:04.755Z,100235.16
2022-09-16T09:03:40.411Z,100248.69
2022-09-16T09:06:45.574Z,100238.34
2022-09-16T09:09:43.638Z,100249.31
2022-09-16T09:12:16.901Z,100251.13
2022-09-16T09:14:54.457Z,100235.47
2022-09-16T09:17:54.081Z,100236.78
2022-09-16T09:20:35.969Z,100250.50
2022-09-16T09:23:25.927Z,100246.53
2022-09-16T09:25:59.126Z,100247.25
2022-09-16T09:28:28.535Z,100244.28
2022-09-16T09:31:10.052Z,100236.38
2022-09-16T09:34:14.050Z,100237.22
2022-09-16T09:37:18.435Z,100241.31
2022-09-16T09:39:57.316Z,100230.81
2022-09-16T09:42:36.189Z,100226.22
2022-09-16T09:45:17.833Z,100233.28
2022-09-16T09:48:15.485Z,100229.97
2022-09-16T09:50:47.455Z,100214.81
2022-09-16T09:53:36.041Z,100213.53
2022-09-16T09:56:18.605Z,100212.91
2022-09-16T09:58:52.412Z,100201.28
2022-09-16T10:01:19.124Z,100209.66
2022-09-16T10:03:51.194Z,100205.81
2022-09-16T10:06:23.673Z,100214.34
2022-09-16T10:08:52.182Z,100214.03
2022-09-16T10:11:27.469Z,100213.06
2022-09-16T10:14:00.016Z,100215.78
2022-09-16T10:16:33.314Z,100211.84
2022-09-16T10:19:16.959Z,100216.22
2022-09-16T10:21:50.915Z,100201.69
2022-09-16T10:24:32.928Z,100207.25
2022-09-16T10:27:02.195Z,100203.53
2022-09-16T10:29:29.406Z,100202.41
2022-09-16T10:32:06.999Z,100188.72
2022-09-16T10:34:42.224Z,100190.50
2022-09-16T10:37:14.706Z,100196.78
2022-09-16T10:39:45.773Z,100191.00
2022-09-16T10:42:21.442Z,100188.56
2022-09-16T10:44:51.237Z,100189.50
2022-09-16T10:47:31.019Z,100182.09
2022-09-16T10:50:04.999Z,100185.78
2022-09-16T10:52:41.377Z,100179.31
2022-09-16T10:55:20.286Z,100169.81
2022-09-16T10:57:47.470Z,100170.06
2022-09-16T11:00:45.585Z,100170.34
2022-09-16T11:03:46.100Z,100167.59
2022-09-16T11:06:15.293Z,100159.41
2022-09-16T11:09:07.342Z,100174.66
2022-09-16T11:12:06.467Z,100163.00
2022-09-16T11:14:58.524Z,100160.03
2022-09-16T11:17:56.099Z,100150.94
2022-09-16T11:21:08.438Z,100163.56
2022-09-16T11:23:47.280Z,100160.28
2022-09-16T11:26:39.919Z,100158.28
2022-09-16T11:29:27.562Z,100160.94
2022-09-16T11:32:05.076Z,100170.53
2022-09-16T11:35:02.766Z,100174.19
2022-09-16T11:37:37.719Z,100179.00
2022-09-16T11:40:19.547Z,100179.94
2022-09-16T11:42:55.121Z,100172.72
2022-09-16T11:45:46.172Z,100180.78
2022-09-16T11:48:38.315Z,100171.16
2022-09-16T11:51:24.167Z,100160.03
2022-09-16T11:54:02.754Z,100161.94
2022-09-16T11:56:47.594Z,100164.16
2022-09-16T11:59:37.330Z,100141.59
2022-09-16T12:02:22.227Z,100139.00
2022-09-16T12:05:18.582Z,100151.69
2022-09-16T12:07:53.139Z,100140.81
2022-09-16T12:10:28.209Z,100134.31
2022-09-16T12:13:13.764Z,100136.41
2022-09-16T12:16:04.305Z,100142.94
2022-09-16T12:19:00.200Z,100145.41
2022-09-16T12:21:40.118Z,100140.47
2022-09-16T12:24:27.093Z,100132.91
2022-09-16T12:27:06.610Z,100150.50
2022-09-16T12:29:56.447Z,100171.69
2022-09-16T12:32:50.715Z,100153.88
2022-09-16T12:35:21.308Z,100161.09
2022-09-16T12:37:50.131Z,100151.00
2022-09-16T12:40:42.101Z,100157.44
2022-09-16T12:43:30.240Z,100162.81
2022-09-16T12:46:18.318Z,100175.03
2022-09-16T12:49:15.263Z,100177.06
2022-09-16T12:52:04.776Z,100180.50
2022-09-16T12:55:06.606Z,100172.28
2022-09-16T12:58:11.274Z,100154.75
2022-09-16T13:00:51.259Z,100139.59
2022-09-16T13:03:22.747Z,100152.00
2022-09-16T13:05:52.854Z,100138.44
2022-09-16T13:08:23.757Z,100143.94
2022-09-16T13:11:41.204Z,100144.56
2022-09-16T13:13:57.229Z,100158.41
2022-09-16T13:16:30.028Z,100147.50
2022-09-16T13:19:27.415Z,100145.78
2022-09-16T13:22:02.166Z,100149.81
2022-09-16T13:24:38.850Z,100172.44
2022-09-16T13:27:28.966Z,100160.84
2022-09-16T13:30:13.839Z,100151.94
2022-09-16T13:32:52.491Z,100136.97
2022-09-16T13:35:19.189Z,100149.56
2022-09-16T13:37:46.963Z,100137.47
2022-09-16T13:40:31.625Z,100132.31
2022-09-16T13:43:37.943Z,100134.72
2022-09-16T13:46:24.776Z,100136.81
2022-09-16T13:49:03.486Z,100131.84
2022-09-16T13:51:36.026Z,100118.94
2022-09-16T13:54:04.642Z,100120.56
2022-09-16T13:57:13.872Z,100119.75
2022-09-16T14:00:18.638Z,100116.03
2022-09-16T14:02:56.543Z,100113.13
2022-09-16T14:06:14.662Z,100112.97
2022-09-16T14:08:54.294Z,100122.66
2022-09-16T14:11:37.638Z,100100.56
2022-09-16T14:14:46.340Z,100108.66
2022-09-16T14:17:40.548Z,100094.47
2022-09-16T14:20:21.495Z,100097.50
2022-09-16T14:22:48.027Z,100091.72
2022-09-16T14:25:30.985Z,100097.81
2022-09-16T14:28:17.803Z,100100.28
2022-09-16T14:30:54.816Z,100098.81
2022-09-16T14:33:25.684Z,100086.38
2022-09-16T14:35:54.253Z,100092.50
2022-09-16T14:41:32.754Z,100072.47
2022-09-16T14:44:16.549Z,100078.47
2022-09-16T14:46:46.662Z,100079.13
2022-09-16T14:49:15.282Z,100071.91
2022-09-16T14:51:52.099Z,100063.84
2022-09-16T14:54:20.180Z,100063.84
2022-09-16T14:56:55.896Z,100053.72
2022-09-16T14:59:35.475Z,100054.84
2022-09-16T15:02:22.259Z,100059.75
2022-09-16T15:05:02.729Z,100059.91
2022-09-16T15:07:34.223Z,100056.28
2022-09-16T15:10:30.268Z,100057.28
2022-09-16T15:13:14.194Z,100054.84
2022-09-16T15:15:48.942Z,100059.53
2022-09-16T15:18:32.791Z,100058.91
2022-09-16T15:21:07.935Z,100064.59
2022-09-16T15:23:36.706Z,100057.00
2022-09-16T15:26:22.928Z,100050.72
2022-09-16T15:29:04.270Z,100051.75
2022-09-16T15:31:44.995Z,100056.25
2022-09-16T15:34:18.552Z,100051.63
2022-09-16T15:36:47.314Z,100045.66
2022-09-16T15:39:48.997Z,100057.72
2022-09-16T15:42:20.685Z,100055.47
2022-09-16T15:44:48.959Z,100056.94
2022-09-16T15:48:04.343Z,100054.97
2022-09-16T15:50:40.688Z,100057.88
2022-09-16T15:53:15.713Z,100054.16
2022-09-16T15:56:02.750Z,100059.09
2022-09-16T15:58:31.917Z,100050.75
2022-09-16T16:01:08.068Z,100040.47
2022-09-16T16:03:53.323Z,100043.34
2022-09-16T16:06:20.395Z,100052.00
2022-09-16T16:08:54.763Z,100049.28
2022-09-16T16:11:23.402Z,100056.84
2022-09-16T16:13:53.032Z,100051.50
2022-09-16T16:16:19.935Z,100053.91
2022-09-16T16:18:46.548Z,100046.13
2022-09-16T16:21:16.026Z,100059.31
2022-09-16T16:23:43.011Z,100050.78
2022-09-16T16:26:10.857Z,100056.72
2022-09-16T16:28:38.878Z,100056.91
2022-09-16T16:31:14.106Z,100055.16
2022-09-16T16:33:44.645Z,100058.03
2022-09-16T16:36:16.308Z,100052.06
2022-09-16T16:38:43.994Z,100050.31
2022-09-16T16:41:12.150Z,100058.19
2022-09-16T16:43:40.516Z,100061.25
2022-09-16T16:46:10.591Z,100046.31
2022-09-16T16:48:39.090Z,100038.59
2022-09-16T16:51:08.773Z,100048.84
2022-09-16T16:53:35.567Z,100050.03
2022-09-16T16:56:04.816Z,100037.97
2022-09-16T16:58:32.349Z,100046.50
2022-09-16T17:01:13.269Z,100050.19
2022-09-16T17:03:41.557Z,100056.97
2022-09-16T17:06:08.903Z,100057.25
2022-09-16T17:08:35.655Z,100060.38
2022-09-16T17:11:15.310Z,100062.13
2022-09-16T17:13:44.198Z,100068.72
2022-09-16T17:16:13.411Z,100090.84
2022-09-16T17:18:41.583Z,100082.44
2022-09-16T17:21:15.445Z,100086.84
2022-09-16T17:23:42.297Z,100087.53
2022-09-16T17:26:13.154Z,100067.88
2022-09-16T17:28:41.135Z,100076.19
2022-09-16T17:31:22.336Z,100089.25
2022-09-16T17:33:48.822Z,100085.69
2022-09-16T17:36:17.930Z,100094.06
2022-09-16T17:38:44.337Z,100081.66
2022-09-16T17:41:15.861Z,100078.41
2022-09-16T17:43:44.129Z,100077.31
2022-09-16T17:46:17.058Z,100082.88
2022-09-16T17:48:44.383Z,100073.78
2022-09-16T17:51:11.036Z,100064.34
2022-09-16T17:53:38.907Z,100080.13
2022-09-16T17:56:10.046Z,100071.56
2022-09-16T17:58:39.093Z,100068.84
2022-09-16T18:01:17.056Z,100073.38
2022-09-16T18:03:45.490Z,100072.28
2022-09-16T18:06:19.565Z,100073.81
2022-09-16T18:08:47.022Z,100067.56
2022-09-16T18:11:15.071Z,100074.19
2022-09-16T18:13:42.484Z,100077.81
2022-09-16T18:16:12.390Z,100092.69
2022-09-16T18:18:41.653Z,100086.56
2022-09-16T18:21:10.917Z,100100.34
2022-09-16T18:23:38.257Z,100094.84
2022-09-16T18:26:10.618Z,100104.81
2022-09-16T18:29:05.134Z,100108.44
2022-09-16T18:31:26.125Z,100101.59
2022-09-16T18:33:54.458Z,100113.47
2022-09-16T18:36:25.331Z,100114.41
2022-09-16T18:38:57.214Z,100121.63
2022-09-16T18:41:26.514Z,100121.69
2022-09-16T18:43:56.041Z,100116.72
2022-09-16T18:46:33.454Z,100124.19
2022-09-16T18:48:59.917Z,100125.06
2022-09-16T18:51:30.546Z,100133.97
2022-09-16T18:54:00.762Z,100141.53
2022-09-16T18:56:34.543Z,100130.97
2022-09-16T18:59:23.602Z,100132.66
2022-09-16T19:01:53.414Z,100126.31
2022-09-16T19:04:22.911Z,100115.50
2022-09-16T19:06:52.404Z,100111.25
2022-09-16T19:09:21.524Z,100109.91
2022-09-16T19:11:49.340Z,100107.41
2022-09-16T19:14:16.333Z,100098.44
2022-09-16T19:16:44.658Z,100096.25
2022-09-16T19:19:13.877Z,100105.34
2022-09-16T19:21:40.897Z,100101.25
2022-09-16T19:24:14.686Z,100106.59
2022-09-16T19:26:42.477Z,100106.09
2022-09-16T19:29:10.137Z,100093.44
2022-09-16T19:31:39.028Z,100100.59
2022-09-16T19:34:06.024Z,100098.31
2022-09-16T19:36:35.205Z,100106.53
2022-09-16T19:39:04.264Z,100103.16
2022-09-16T19:41:33.246Z,100104.63
2022-09-16T19:44:01.900Z,100102.41
2022-09-16T19:46:31.684Z,100093.44
2022-09-16T19:48:58.785Z,100106.97
2022-09-16T19:51:26.033Z,100105.50
2022-09-16T19:53:54.422Z,100098.09
2022-09-16T19:56:25.430Z,100100.38
2022-09-16T19:58:53.209Z,100103.03
2022-09-16T20:01:23.619Z,100100.66
2022-09-16T20:03:50.989Z,100101.25
2022-09-16T20:06:23.921Z,100101.47
2022-09-16T20:09:01.022Z,100102.25
2022-09-16T20:11:31.400Z,100108.06
2022-09-16T20:14:11.830Z,100099.69
2022-09-16T20:16:40.153Z,100106.38
2022-09-16T20:19:13.298Z,100111.06
2022-09-16T20:21:40.715Z,100102.09
2022-09-16T20:24:13.367Z,100105.34
2022-09-16T20:26:40.180Z,100111.06
2022-09-16T20:29:06.882Z,100104.19
2022-09-16T20:31:35.741Z,100121.78
2022-09-16T20:34:03.708Z,100132.16
2022-09-16T20:36:31.233Z,100120.50
2022-09-16T20:39:00.602Z,100127.09
2022-09-16T20:41:32.105Z,100125.94
2022-09-16T20:43:59.376Z,100128.56
2022-09-16T20:46:27.263Z,100131.44
2022-09-16T20:48:54.894Z,100127.84
2022-09-16T20:51:24.129Z,100138.84
2022-09-16T20:54:03.760Z,100137.50
2022-09-16T20:56:38.087Z,100142.50
2022-09-16T20:59:08.386Z,100146.31
2022-09-16T21:01:37.145Z,100144.16
2022-09-16T21:04:06.925Z,100160.19
2022-09-16T21:06:35.571Z,100146.81
2022-09-16T21:09:05.250Z,100148.00
2022-09-16T21:11:32.261Z,100164.53
2022-09-16T21:14:06.582Z,100170.19
2022-09-16T21:16:35.646Z,100174.56
2022-09-16T21:19:05.614Z,100181.63
2022-09-16T21:21:32.086Z,100172.16
2022-09-16T21:24:01.290Z,100179.16
2022-09-16T21:26:30.898Z,100194.59
2022-09-16T21:29:04.729Z,100185.16
2022-09-16T21:31:33.550Z,100182.38
2022-09-16T21:34:01.708Z,100182.69
2022-09-16T21:36:28.257Z,100183.25
2022-09-16T21:38:55.547Z,100185.69
2022-09-16T21:41:23.159Z,100182.03
2022-09-16T21:43:55.528Z,100179.44
2022-09-16T21:46:25.850Z,100188.06
2022-09-16T21:48:56.356Z,100184.53
2022-09-16T21:51:22.964Z,100172.50
2022-09-16T21:53:49.599Z,100171.69
2022-09-16T21:56:18.808Z,100178.75
2022-09-16T21:58:46.561Z,100173.78
2022-09-16T22:01:19.077Z,100188.00
2022-09-16T22:03:54.119Z,100177.00
2022-09-16T22:06:27.593Z,100180.13
2022-09-16T22:09:19.202Z,100188.28
2022-09-16T22:11:46.223Z,100184.75
2022-09-16T22:14:12.644Z,100182.91
2022-09-16T22:16:40.271Z,100183.41
2022-09-16T22:19:16.194Z,100182.03
2022-09-16T22:21:46.034Z,100190.41
2022-09-16T22:24:12.745Z,100180.41
2022-09-16T22:26:40.201Z,100181.47
2022-09-16T22:29:09.143Z,100179.09
2022-09-16T22:31:38.121Z,100182.78
2022-09-16T22:34:05.370Z,100185.34
2022-09-16T22:36:33.879Z,100183.63
2022-09-16T22:39:07.338Z,100188.28
2022-09-16T22:41:34.474Z,100190.19
2022-09-16T22:44:01.004Z,100189.78
2022-09-16T22:46:31.905Z,100196.94
2022-09-16T22:48:59.481Z,100201.59
2022-09-16T22:51:27.142Z,100200.50
2022-09-16T22:53:54.643Z,100200.28
2022-09-16T22:56:29.230Z,100197.84
2022-09-16T22:58:56.815Z,100195.41
2022-09-16T23:01:37.244Z,100207.31
2022-09-16T23:04:05.458Z,100203.72
2022-09-16T23:06:33.623Z,100193.16
2022-09-16T23:09:00.900Z,100198.59
2022-09-16T23:11:31.045Z,100201.31
2022-09-16T23:13:58.075Z,100211.81
2022-09-16T23:16:27.269Z,100207.88
2022-09-16T23:18:55.767Z,100202.44
2022-09-16T23:21:23.638Z,100208.66
2022-09-16T23:23:56.184Z,100207.75
2022-09-16T23:26:25.337Z,100207.25
2022-09-16T23:28:54.605Z,100200.72
2022-09-16T23:31:23.183Z,100202.88
2022-09-16T23:33:49.727Z,100208.31
2022-09-16T23:36:17.569Z,100202.03
2022-09-16T23:38:45.855Z,100209.34
2022-09-16T23:41:15.313Z,100214.78
2022-09-16T23:43:43.446Z,100213.47
2022-09-16T23:46:12.009Z,100223.16
2022-09-16T23:48:39.309Z,100217.19
2022-09-16T23:51:08.324Z,100209.84
2022-09-16T23:53:35.928Z,100221.25
2022-09-16T23:56:07.505Z,100222.50
2022-09-16T23:58:35.101Z,100212.97
